Time;durP1;ratioP1;P1;durP2;ratioP2;P2;SDS_P1;SDS_P2;PMS_P1;PMS_P2;Temp;Humidity;BMP_temperature;BMP_pressure;BME280_temperature;BME280_humidity;BME280_pressure;Samples;Min_cycle;Max_cycle;Signal;HPM_P1;HPM_P2
2021/04/25 00:01:15;;;;;;;31.83;16.73;;;;;;;7.37;61.90;100613.59;5093036;28;20040;-73
2021/04/25 00:03:41;;;;;;;35.85;15.90;;;;;;;7.40;61.53;100614.31;5074867;28;20036;-70
2021/04/25 00:06:06;;;;;;;31.17;17.05;;;;;;;7.54;58.97;100610.25;5074917;28;20040;-70
2021/04/25 00:08:32;;;;;;;27.88;15.35;;;;;;;7.60;57.90;100605.50;5092749;28;20564;-70
2021/04/25 00:11:01;;;;;;;28.73;14.10;;;;;;;7.56;56.72;100588.00;5092866;28;20396;-70
2021/04/25 00:13:28;;;;;;;28.17;14.02;;;;;;;7.60;56.08;100575.44;5092613;28;20036;-71
2021/04/25 00:15:55;;;;;;;26.70;12.63;;;;;;;7.64;55.74;100577.94;5092799;28;20489;-71
2021/04/25 00:18:21;;;;;;;26.25;13.10;;;;;;;7.67;55.36;100574.28;5092629;28;20496;-71
2021/04/25 00:20:46;;;;;;;26.38;14.40;;;;;;;7.64;55.87;100571.75;5093001;28;20036;-70
2021/04/25 00:23:12;;;;;;;24.08;13.98;;;;;;;7.53;55.86;100568.66;5041705;28;20347;-70
2021/04/25 00:25:38;;;;;;;32.10;14.15;;;;;;;7.57;56.44;100595.03;5074282;28;20036;-71
2021/04/25 00:28:03;;;;;;;28.38;13.23;;;;;;;7.27;56.47;100530.84;5074613;28;20127;-71
2021/04/25 00:30:29;;;;;;;24.70;13.30;;;;;;;7.40;57.49;100582.47;5092471;28;20469;-69
2021/04/25 00:32:54;;;;;;;27.05;13.95;;;;;;;7.46;57.40;100576.91;5074613;28;20115;-70
2021/04/25 00:35:21;;;;;;;27.40;14.00;;;;;;;7.32;57.67;100575.75;5061522;28;20122;-74
2021/04/25 00:37:47;;;;;;;29.55;14.20;;;;;;;7.10;58.50;100551.91;5078449;28;20496;-73
2021/04/25 00:40:15;;;;;;;30.10;14.23;;;;;;;6.98;59.22;100545.31;5096516;28;20040;-73
2021/04/25 00:42:41;;;;;;;25.70;14.07;;;;;;;7.00;59.88;100559.38;5096080;28;20028;-67
2021/04/25 00:45:12;;;;;;;24.70;13.88;;;;;;;7.03;59.71;100579.59;5096141;28;20040;-67
2021/04/25 00:47:40;;;;;;;28.25;14.88;;;;;;;6.96;59.65;100578.13;5095824;28;20028;-67
2021/04/25 00:50:06;;;;;;;27.92;15.20;;;;;;;6.96;60.01;100572.84;5078111;28;20040;-68
2021/04/25 00:52:37;;;;;;;27.40;15.57;;;;;;;6.87;62.09;100560.81;5077843;28;20120;-68
2021/04/25 00:55:04;;;;;;;30.92;15.40;;;;;;;6.85;62.21;100579.44;5077680;28;20032;-67
2021/04/25 00:57:30;;;;;;;30.60;15.45;;;;;;;6.72;62.44;100556.97;5060940;28;20050;-75
2021/04/25 00:59:56;;;;;;;28.55;15.40;;;;;;;6.63;62.69;100533.47;5078141;28;20107;-75
2021/04/25 01:02:22;;;;;;;30.45;15.40;;;;;;;6.85;63.24;100563.53;5077442;28;20036;-74
2021/04/25 01:04:48;;;;;;;29.73;15.80;;;;;;;6.99;62.10;100564.75;5095997;28;20090;-74
2021/04/25 01:07:13;;;;;;;27.95;14.75;;;;;;;7.04;61.94;100576.00;5077657;28;20060;-74
2021/04/25 01:09:40;;;;;;;30.85;15.50;;;;;;;6.96;62.24;100571.03;5095561;28;20035;-75
2021/04/25 01:12:06;;;;;;;29.13;14.90;;;;;;;6.92;62.89;100580.03;5095781;28;20024;-75
2021/04/25 01:14:32;;;;;;;28.05;15.95;;;;;;;6.85;63.20;100581.19;5077304;28;20040;-76
2021/04/25 01:16:57;;;;;;;26.48;15.27;;;;;;;6.78;63.24;100572.63;5077297;28;20052;-73
2021/04/25 01:19:23;;;;;;;30.35;15.52;;;;;;;6.69;63.28;100550.94;5095109;28;20065;-73
2021/04/25 01:21:48;;;;;;;30.40;16.45;;;;;;;6.83;63.24;100586.56;5060986;28;20028;-73
2021/04/25 01:24:14;;;;;;;25.25;16.20;;;;;;;6.81;63.04;100582.25;5077373;28;20069;-70
2021/04/25 01:26:40;;;;;;;31.23;16.75;;;;;;;6.73;63.08;100579.88;5095263;28;20498;-70
2021/04/25 01:29:05;;;;;;;32.15;16.20;;;;;;;6.65;62.70;100574.03;5077146;28;20121;-69
2021/04/25 01:31:31;;;;;;;28.70;15.60;;;;;;;6.78;62.17;100566.47;5076950;28;20050;-69
2021/04/25 01:33:57;;;;;;;25.38;14.98;;;;;;;6.77;62.20;100570.91;5077313;28;20034;-69
2021/04/25 01:36:22;;;;;;;28.52;15.02;;;;;;;6.57;62.60;100533.72;5094793;28;20477;-77
2021/04/25 01:38:48;;;;;;;27.15;14.18;;;;;;;6.60;62.38;100547.72;5095345;28;20028;-70
2021/04/25 01:41:13;;;;;;;28.50;14.90;;;;;;;6.89;61.56;100554.50;5095342;28;20384;-70
2021/04/25 01:43:39;;;;;;;29.10;15.25;;;;;;;6.95;61.23;100548.09;5076936;28;20051;-70
2021/04/25 01:46:04;;;;;;;26.10;14.90;;;;;;;7.01;61.91;100557.59;5094207;28;20396;-71
2021/04/25 01:48:30;;;;;;;29.45;15.15;;;;;;;7.14;61.91;100561.44;5076764;28;20048;-71
2021/04/25 01:50:56;;;;;;;30.45;14.60;;;;;;;7.06;62.39;100552.97;5077707;28;20219;-70
2021/04/25 01:53:21;;;;;;;31.40;15.55;;;;;;;6.83;62.72;100538.84;5078015;28;20078;-70
2021/04/25 01:55:47;;;;;;;26.50;14.15;;;;;;;6.79;62.54;100523.97;5094868;28;20028;-71
2021/04/25 01:58:12;;;;;;;25.60;15.43;;;;;;;6.76;62.84;100526.78;5077136;28;20386;-70
2021/04/25 02:00:41;;;;;;;28.08;15.07;;;;;;;6.72;63.17;100524.28;5094909;28;20039;-70
2021/04/25 02:03:09;;;;;;;28.83;15.20;;;;;;;6.84;63.40;100551.16;5076655;28;20481;-72
2021/04/25 02:05:35;;;;;;;28.38;15.75;;;;;;;6.66;64.10;100551.91;5094492;28;20032;-73
2021/04/25 02:08:00;;;;;;;28.70;15.80;;;;;;;6.59;64.90;100550.41;5076666;28;20032;-72
2021/04/25 02:10:26;;;;;;;28.10;14.73;;;;;;;6.45;65.08;100531.53;5094156;28;20043;-73
2021/04/25 02:12:52;;;;;;;28.45;15.65;;;;;;;6.56;65.23;100547.88;5076830;28;20380;-72
2021/04/25 02:15:20;;;;;;;28.58;15.35;;;;;;;6.52;65.36;100543.63;5094619;28;20048;-72
2021/04/25 02:17:46;;;;;;;31.35;16.00;;;;;;;6.38;65.96;100543.31;5075907;28;20130;-72
2021/04/25 02:20:13;;;;;;;32.55;15.93;;;;;;;6.30;66.05;100533.00;5076067;28;20119;-69
2021/04/25 02:22:40;;;;;;;35.35;16.75;;;;;;;6.42;65.79;100545.75;5093955;28;20107;-69
2021/04/25 02:25:07;;;;;;;31.98;16.08;;;;;;;6.45;65.73;100531.53;5094074;28;20044;-71
2021/04/25 02:27:33;;;;;;;30.95;14.63;;;;;;;6.35;65.94;100511.59;5059198;28;20038;-71
2021/04/25 02:29:59;;;;;;;29.40;15.73;;;;;;;6.28;66.32;100509.22;5076323;28;20040;-72
2021/04/25 02:32:24;;;;;;;27.55;14.35;;;;;;;6.42;64.55;100535.16;5076144;28;20068;-70
2021/04/25 02:34:50;;;;;;;27.48;15.82;;;;;;;6.58;63.67;100533.66;5075771;28;20075;-71
2021/04/25 02:37:17;;;;;;;30.65;15.95;;;;;;;6.55;62.72;100538.19;5094134;28;20044;-70
2021/04/25 02:39:42;;;;;;;24.48;14.65;;;;;;;6.52;62.39;100548.94;5093918;28;20051;-70
2021/04/25 02:42:08;;;;;;;29.50;15.10;;;;;;;6.39;63.21;100547.69;5093788;28;20032;-70
2021/04/25 02:44:33;;;;;;;27.95;14.20;;;;;;;6.32;64.14;100547.91;5093647;28;20066;-69
2021/04/25 02:46:59;;;;;;;31.65;15.48;;;;;;;5.81;65.04;100476.53;5075906;28;20522;-70
2021/04/25 02:49:25;;;;;;;28.92;15.15;;;;;;;6.00;65.31;100524.41;5075962;28;20032;-70
2021/04/25 02:51:50;;;;;;;31.25;15.20;;;;;;;5.96;65.45;100518.34;5093342;28;20451;-71
2021/04/25 02:54:15;;;;;;;29.27;14.60;;;;;;;6.29;64.79;100540.09;5093579;28;20038;-71
2021/04/25 02:56:41;;;;;;;28.60;15.02;;;;;;;6.60;64.37;100517.69;5074880;28;20071;-71
2021/04/25 02:59:06;;;;;;;27.30;14.30;;;;;;;6.35;63.82;100469.22;5093722;28;20469;-72
2021/04/25 03:01:32;;;;;;;25.10;14.52;;;;;;;6.72;63.04;100519.84;5075254;28;20474;-72
2021/04/25 03:03:57;;;;;;;30.77;14.50;;;;;;;6.57;63.26;100516.03;5093308;28;20035;-71
2021/04/25 03:06:23;;;;;;;34.65;15.85;;;;;;;6.68;62.06;100512.94;5094099;28;20119;-72
2021/04/25 03:08:49;;;;;;;28.60;13.68;;;;;;;6.38;61.38;100451.44;5093241;28;20081;-71
2021/04/25 03:11:14;;;;;;;26.10;13.95;;;;;;;6.38;61.94;100451.44;5093500;28;20089;-71
2021/04/25 03:13:40;;;;;;;29.38;14.38;;;;;;;6.72;61.64;100508.38;5058464;28;20535;-73
2021/04/25 03:16:05;;;;;;;25.33;13.63;;;;;;;6.76;61.74;100504.69;5075175;28;20052;-73
2021/04/25 03:18:31;;;;;;;28.00;15.38;;;;;;;6.71;61.41;100501.34;5075311;28;20047;-72
2021/04/25 03:20:56;;;;;;;32.20;16.10;;;;;;;6.62;60.60;100475.22;5093181;28;20392;-71
2021/04/25 03:23:22;;;;;;;29.00;14.63;;;;;;;6.58;60.67;100479.78;5075299;28;20032;-72
2021/04/25 03:25:48;;;;;;;31.05;16.13;;;;;;;6.59;60.69;100494.75;5092814;28;20082;-72
2021/04/25 03:28:13;;;;;;;29.13;14.88;;;;;;;6.55;60.91;100499.31;5093343;28;20031;-72
2021/04/25 03:30:39;;;;;;;31.38;14.60;;;;;;;6.55;60.73;100496.66;5075136;28;20035;-72
2021/04/25 03:33:05;;;;;;;31.05;15.75;;;;;;;6.49;61.11;100507.50;5093427;28;20063;-73
2021/04/25 03:35:32;;;;;;;29.45;14.85;;;;;;;6.54;60.89;100509.97;5092983;28;20069;-73
2021/04/25 03:37:57;;;;;;;32.55;16.25;;;;;;;6.39;61.76;100516.75;5075211;28;20043;-73
2021/04/25 03:40:23;;;;;;;27.95;15.50;;;;;;;6.31;61.80;100506.44;5075353;28;20031;-73
2021/04/25 03:42:49;;;;;;;31.17;15.15;;;;;;;6.37;61.15;100513.31;5092886;28;20036;-72
2021/04/25 03:45:15;;;;;;;27.65;14.82;;;;;;;6.24;62.32;100507.59;5075054;28;20123;-72
2021/04/25 03:47:46;;;;;;;29.05;14.63;;;;;;;6.38;61.43;100509.72;5074381;28;20036;-73
2021/04/25 03:50:13;;;;;;;30.42;13.27;;;;;;;6.54;60.19;100502.00;5075959;28;20036;-73
2021/04/25 03:52:41;;;;;;;28.27;13.32;;;;;;;6.50;60.48;100503.06;5092594;28;20040;-73
2021/04/25 03:55:07;;;;;;;33.60;15.18;;;;;;;6.31;60.93;100493.19;5093153;28;20086;-73
2021/04/25 03:57:33;;;;;;;26.95;13.90;;;;;;;6.28;61.58;100519.81;5092842;28;20064;-71
2021/04/25 04:00:00;;;;;;;31.17;14.38;;;;;;;6.21;62.09;100518.31;5092704;28;20114;-71
2021/04/25 04:02:25;;;;;;;28.63;14.13;;;;;;;6.24;61.92;100518.19;5092951;28;20036;-70
2021/04/25 04:04:51;;;;;;;29.02;14.68;;;;;;;6.24;61.42;100502.28;5093014;28;20415;-69
2021/04/25 04:07:16;;;;;;;30.77;14.68;;;;;;;6.42;61.85;100518.41;5074833;28;20047;-71
2021/04/25 04:09:42;;;;;;;30.02;14.85;;;;;;;6.32;61.56;100499.34;5077364;28;20374;-70
2021/04/25 04:12:08;;;;;;;30.70;13.77;;;;;;;6.47;61.21;100493.47;5096900;28;20071;-70
2021/04/25 04:14:34;;;;;;;32.17;15.25;;;;;;;6.62;60.49;100510.53;5096497;28;20036;-72
2021/04/25 04:16:59;;;;;;;33.67;15.20;;;;;;;6.67;60.56;100513.88;5078858;28;20052;-70
2021/04/25 04:19:25;;;;;;;28.50;14.90;;;;;;;6.76;60.67;100502.03;5097136;28;20498;-71
2021/04/25 04:21:50;;;;;;;30.73;15.50;;;;;;;6.89;60.54;100511.22;5078350;28;20066;-70
2021/04/25 04:24:16;;;;;;;27.13;14.05;;;;;;;6.92;60.87;100511.06;5096847;28;20414;-71
2021/04/25 04:26:41;;;;;;;34.28;16.08;;;;;;;6.55;60.96;100442.78;5078349;28;20044;-71
2021/04/25 04:29:07;;;;;;;29.83;15.40;;;;;;;6.85;60.60;100481.31;5096871;28;20385;-71
2021/04/25 04:31:32;;;;;;;31.75;15.73;;;;;;;7.01;60.52;100484.19;5078493;28;20081;-70
2021/04/25 04:33:58;;;;;;;34.20;16.00;;;;;;;7.17;59.88;100495.03;5078236;28;20032;-72
2021/04/25 04:36:23;;;;;;;32.22;15.73;;;;;;;7.17;60.15;100473.78;5096632;28;20032;-73
2021/04/25 04:38:49;;;;;;;30.70;14.90;;;;;;;7.39;59.49;100489.66;5095771;28;20032;-75
2021/04/25 04:41:14;;;;;;;34.13;15.75;;;;;;;7.49;58.76;100495.44;5061576;28;20047;-70
2021/04/25 04:43:39;;;;;;;29.17;15.27;;;;;;;7.48;58.80;100486.59;5095857;28;20056;-70
2021/04/25 04:46:05;;;;;;;31.50;16.60;;;;;;;7.47;59.13;100456.53;5061541;28;20465;-70
2021/04/25 04:48:30;;;;;;;29.30;15.77;;;;;;;7.50;59.46;100444.91;5095940;28;20365;-70
2021/04/25 04:50:56;;;;;;;31.65;15.55;;;;;;;7.57;58.95;100451.69;5061142;28;20135;-71
2021/04/25 04:53:21;;;;;;;33.67;15.75;;;;;;;7.91;57.69;100474.03;5078140;28;20385;-71
2021/04/25 04:55:47;;;;;;;31.00;15.15;;;;;;;7.68;57.81;100422.00;5095901;28;20112;-70
2021/04/25 04:58:12;;;;;;;30.75;16.13;;;;;;;8.08;57.76;100470.63;5096319;28;20086;-70
2021/04/25 05:00:38;;;;;;;32.88;16.17;;;;;;;7.88;56.56;100413.13;5095802;28;20103;-70
2021/04/25 05:03:04;;;;;;;33.30;16.08;;;;;;;8.25;56.93;100465.41;5096249;28;20032;-71
2021/04/25 05:05:29;;;;;;;30.48;16.77;;;;;;;8.36;56.24;100464.91;5095728;28;20031;-71
2021/04/25 05:07:55;;;;;;;32.40;15.95;;;;;;;8.53;55.09;100465.84;5096038;28;20028;-71
2021/04/25 05:10:20;;;;;;;32.75;16.85;;;;;;;8.56;55.36;100455.03;5096162;28;20032;-70
2021/04/25 05:12:46;;;;;;;29.20;16.83;;;;;;;8.79;54.59;100453.06;5077727;28;20059;-74
2021/04/25 05:15:11;;;;;;;35.47;17.60;;;;;;;8.72;54.44;100438.34;5077509;28;20086;-72
2021/04/25 05:17:37;;;;;;;35.97;17.77;;;;;;;8.92;54.26;100451.50;5095461;28;20052;-73
2021/04/25 05:20:04;;;;;;;34.97;18.10;;;;;;;8.83;54.11;100436.00;5042768;28;20101;-69
2021/04/25 05:22:29;;;;;;;41.90;18.27;;;;;;;9.03;54.20;100456.28;5077559;28;20416;-72
2021/04/25 05:24:55;;;;;;;35.08;17.80;;;;;;;9.15;54.61;100450.34;5077198;28;20082;-72
2021/04/25 05:27:20;;;;;;;36.05;17.75;;;;;;;9.39;53.28;100453.53;5095717;28;20399;-73
2021/04/25 05:29:47;;;;;;;34.75;18.08;;;;;;;9.50;53.50;100452.97;5095238;28;20090;-70
2021/04/25 05:32:13;;;;;;;36.78;16.85;;;;;;;9.56;53.14;100436.69;5095321;28;20120;-76
2021/04/25 05:34:38;;;;;;;32.03;17.45;;;;;;;9.61;52.99;100430.16;5095514;28;20126;-76
2021/04/25 05:37:04;;;;;;;34.00;17.98;;;;;;;9.73;52.62;100426.84;5095094;28;20392;-74
2021/04/25 05:39:29;;;;;;;34.90;17.83;;;;;;;9.91;52.02;100421.47;5077255;28;20458;-74
2021/04/25 05:41:55;;;;;;;36.88;17.73;;;;;;;10.14;51.57;100442.41;5095093;28;20039;-75
2021/04/25 05:44:21;;;;;;;32.45;18.67;;;;;;;10.28;51.39;100433.66;5094929;28;20044;-74
2021/04/25 05:46:46;;;;;;;33.72;18.35;;;;;;;10.23;51.31;100433.91;5096049;28;20039;-76
2021/04/25 05:49:12;;;;;;;38.67;19.48;;;;;;;10.30;51.44;100435.28;5098861;28;20024;-74
2021/04/25 05:51:37;;;;;;;33.10;17.83;;;;;;;10.34;51.44;100443.97;5095057;28;20028;-75
2021/04/25 05:54:03;;;;;;;36.42;18.80;;;;;;;10.41;50.78;100441.81;5094459;28;20499;-76
2021/04/25 05:56:30;;;;;;;35.53;18.55;;;;;;;10.51;51.23;100437.66;5095039;28;20043;-76
2021/04/25 05:58:56;;;;;;;36.67;19.08;;;;;;;10.77;50.73;100439.72;5099906;28;20526;-76
2021/04/25 06:01:22;;;;;;;34.45;18.15;;;;;;;11.12;49.70;100434.97;5094532;28;20028;-77
2021/04/25 06:03:47;;;;;;;32.22;18.83;;;;;;;11.32;49.38;100422.25;5094616;28;20026;-77
2021/04/25 06:06:13;;;;;;;36.25;18.30;;;;;;;11.36;49.22;100426.44;5076361;28;20404;-77
2021/04/25 06:08:38;;;;;;;38.88;18.73;;;;;;;11.67;48.67;100442.31;5094721;28;20024;-79
2021/04/25 06:11:04;;;;;;;34.13;18.95;;;;;;;12.16;47.23;100433.06;5094544;28;20439;-76
2021/04/25 06:13:29;;;;;;;39.63;19.63;;;;;;;11.67;47.93;100380.00;5092533;28;20036;-78
2021/04/25 06:15:55;;;;;;;34.08;19.40;;;;;;;11.67;48.17;100430.75;5094404;28;20044;-77
2021/04/25 06:18:21;;;;;;;35.58;18.48;;;;;;;11.40;49.07;100436.84;5094412;28;20090;-79
2021/04/25 06:20:46;;;;;;;36.13;19.20;;;;;;;10.99;50.87;100411.75;5094348;28;20032;-77
2021/04/25 06:23:13;;;;;;;31.60;18.58;;;;;;;10.79;50.51;100379.09;5075947;28;20086;-77
2021/04/25 06:25:40;;;;;;;39.22;19.23;;;;;;;11.25;50.31;100421.75;5075824;28;20032;-75
2021/04/25 06:28:05;;;;;;;36.65;18.83;;;;;;;12.08;49.40;100397.94;5093616;28;20020;-76
2021/04/25 06:30:31;;;;;;;37.50;19.08;;;;;;;13.24;46.29;100390.25;5093812;28;20039;-76
2021/04/25 06:32:56;;;;;;;35.63;17.92;;;;;;;13.28;45.86;100407.78;5093817;28;20035;-76
2021/04/25 06:35:22;;;;;;;32.08;18.60;;;;;;;13.28;44.00;100405.97;5093896;28;20050;-76
2021/04/25 06:37:47;;;;;;;32.03;18.20;;;;;;;13.02;44.13;100413.06;5094050;28;20127;-75
2021/04/25 06:40:14;;;;;;;29.33;16.38;;;;;;;13.03;42.77;100420.16;5093431;28;20031;-70
2021/04/25 06:42:40;;;;;;;27.30;15.93;;;;;;;12.95;42.32;100414.47;5093698;28;20492;-75
2021/04/25 06:45:24;;;;;;;27.15;15.55;;;;;;;12.88;41.44;100403.31;5075235;28;20032;-75
2021/04/25 06:47:56;;;;;;;29.55;16.35;;;;;;;12.70;41.88;100393.81;5093833;28;20028;-75
2021/04/25 06:50:21;;;;;;;28.33;15.38;;;;;;;12.55;41.95;100382.34;5076143;28;20124;-76
2021/04/25 06:52:48;;;;;;;31.08;15.35;;;;;;;12.43;42.33;100361.72;5094048;28;20126;-76
2021/04/25 06:55:17;;;;;;;26.42;15.65;;;;;;;12.73;41.72;100400.78;5093523;28;20020;-76
2021/04/25 06:57:44;;;;;;;31.48;15.15;;;;;;;12.71;42.48;100395.53;5093882;28;20024;-75
2021/04/25 07:00:11;;;;;;;27.48;15.35;;;;;;;12.60;42.18;100380.19;5093642;28;20039;-76
2021/04/25 07:02:36;;;;;;;27.85;14.65;;;;;;;12.62;42.09;100398.81;5093774;28;20032;-76
2021/04/25 07:05:04;;;;;;;28.27;16.00;;;;;;;12.52;42.69;100390.53;5075489;28;20355;-76
2021/04/25 07:07:30;;;;;;;27.90;15.55;;;;;;;12.70;42.91;100385.78;5093416;28;20393;-75
2021/04/25 07:09:56;;;;;;;25.65;15.25;;;;;;;12.53;42.97;100341.41;5093479;28;20123;-77
2021/04/25 07:12:22;;;;;;;27.98;15.48;;;;;;;13.04;42.26;100387.06;5093625;28;20434;-76
2021/04/25 07:14:47;;;;;;;29.33;15.95;;;;;;;13.21;41.62;100406.50;5093519;28;20032;-75
2021/04/25 07:17:13;;;;;;;29.92;15.85;;;;;;;13.38;41.58;100398.16;5093471;28;20044;-75
2021/04/25 07:19:38;;;;;;;28.20;15.95;;;;;;;13.81;40.92;100397.84;5093404;28;20042;-76
2021/04/25 07:22:04;;;;;;;27.92;15.20;;;;;;;14.11;40.28;100392.94;5075279;28;20059;-76
2021/04/25 07:24:29;;;;;;;25.75;15.40;;;;;;;14.10;40.23;100342.97;5075631;28;20036;-74
2021/04/25 07:26:55;;;;;;;28.08;15.75;;;;;;;14.35;39.55;100370.66;5093669;28;20035;-74
2021/04/25 07:29:21;;;;;;;26.38;15.57;;;;;;;14.82;38.65;100388.59;5092803;28;20042;-74
2021/04/25 07:31:46;;;;;;;25.95;14.35;;;;;;;14.96;37.24;100388.44;5093363;28;20173;-74
2021/04/25 07:34:12;;;;;;;26.13;16.05;;;;;;;14.89;38.08;100369.22;5093138;28;20028;-74
2021/04/25 07:36:37;;;;;;;25.83;13.95;;;;;;;14.42;37.46;100327.16;5058570;28;20036;-74
2021/04/25 07:39:05;;;;;;;26.67;14.25;;;;;;;14.52;37.98;100359.56;5075118;28;20043;-74
2021/04/25 07:41:31;;;;;;;25.73;14.85;;;;;;;14.56;37.82;100361.03;5092897;28;20504;-74
2021/04/25 07:43:57;;;;;;;25.25;15.10;;;;;;;14.67;37.91;100379.88;5074921;28;20047;-74
2021/04/25 07:46:23;;;;;;;23.58;15.30;;;;;;;14.76;37.48;100379.16;5092883;28;20040;-74
2021/04/25 07:48:48;;;;;;;25.58;14.38;;;;;;;14.71;37.25;100353.66;5093203;28;20412;-75
2021/04/25 07:51:14;;;;;;;26.75;14.98;;;;;;;14.92;37.50;100361.91;5058236;28;20036;-76
2021/04/25 07:53:39;;;;;;;27.05;15.43;;;;;;;15.00;38.07;100372.91;5075320;28;20461;-76
2021/04/25 07:56:06;;;;;;;23.50;14.02;;;;;;;15.05;37.33;100368.03;5092917;28;20089;-75
2021/04/25 07:58:32;;;;;;;22.63;13.43;;;;;;;15.18;36.94;100364.31;5093090;28;20040;-75
2021/04/25 08:00:57;;;;;;;25.75;14.65;;;;;;;15.06;37.01;100338.41;5093127;28;20063;-75
2021/04/25 08:03:23;;;;;;;26.70;14.35;;;;;;;15.26;36.44;100366.41;5093200;28;20043;-75
2021/04/25 08:05:48;;;;;;;24.98;14.18;;;;;;;14.84;36.58;100303.41;5093186;28;20036;-75
2021/04/25 08:08:14;;;;;;;24.73;13.88;;;;;;;15.25;37.00;100359.31;5092824;28;20480;-75
2021/04/25 08:10:41;;;;;;;26.77;14.35;;;;;;;15.17;37.20;100361.75;5058190;28;20032;-75
2021/04/25 08:13:07;;;;;;;24.55;13.75;;;;;;;14.99;37.43;100349.72;5092749;28;20036;-75
2021/04/25 08:15:32;;;;;;;26.80;14.88;;;;;;;15.11;38.12;100359.50;5074586;28;20127;-75
2021/04/25 08:17:58;;;;;;;26.58;14.05;;;;;;;14.99;38.26;100358.63;5092667;28;20047;-75
2021/04/25 08:20:24;;;;;;;26.67;13.57;;;;;;;15.14;37.27;100356.59;5092704;28;20036;-75
2021/04/25 08:22:50;;;;;;;25.27;13.75;;;;;;;15.11;37.57;100338.88;5092832;28;20028;-75
2021/04/25 08:25:15;;;;;;;22.08;13.18;;;;;;;15.44;36.80;100359.59;5092297;28;20024;-75
2021/04/25 08:27:42;;;;;;;24.35;13.70;;;;;;;15.57;36.35;100351.41;5092500;28;20035;-75
2021/04/25 08:30:08;;;;;;;25.13;14.15;;;;;;;15.57;36.55;100337.97;5074686;28;20464;-75
2021/04/25 08:32:33;;;;;;;22.52;13.57;;;;;;;15.89;36.36;100354.22;5093033;28;20543;-75
2021/04/25 08:34:59;;;;;;;23.77;13.40;;;;;;;15.86;35.83;100353.63;5092883;28;20052;-75
2021/04/25 08:37:25;;;;;;;27.00;13.57;;;;;;;15.84;36.27;100336.75;5092292;28;20032;-75
2021/04/25 08:39:50;;;;;;;23.70;13.18;;;;;;;15.89;36.38;100346.16;5092787;28;20032;-75
2021/04/25 08:42:17;;;;;;;26.88;15.20;;;;;;;15.92;36.60;100354.00;5074532;28;20517;-75
2021/04/25 08:44:44;;;;;;;24.02;14.38;;;;;;;15.76;36.81;100321.25;5092747;28;20476;-75
2021/04/25 08:47:11;;;;;;;28.50;14.90;;;;;;;15.93;37.16;100331.50;5092365;28;20028;-76
2021/04/25 08:49:37;;;;;;;22.55;12.63;;;;;;;15.74;37.06;100336.66;5074793;28;20044;-75
2021/04/25 08:52:03;;;;;;;29.20;13.45;;;;;;;15.93;37.05;100334.19;5092649;28;20036;-75
2021/04/25 08:54:28;;;;;;;25.33;13.88;;;;;;;15.74;37.23;100296.31;5092370;28;20032;-75
2021/04/25 08:56:57;;;;;;;26.25;13.32;;;;;;;16.01;37.39;100334.38;5077610;28;20048;-75
2021/04/25 08:59:23;;;;;;;24.20;14.02;;;;;;;16.14;36.67;100311.88;5077751;28;20036;-76
2021/04/25 09:01:48;;;;;;;26.90;13.80;;;;;;;16.36;36.30;100309.13;5095846;28;20172;-75
2021/04/25 09:04:14;;;;;;;24.90;13.02;;;;;;;16.57;36.46;100326.16;5095446;28;20477;-75
2021/04/25 09:06:56;;;;;;;24.98;12.90;;;;;;;16.68;36.47;100314.50;5096284;28;20032;-75
2021/04/25 09:09:21;;;;;;;25.35;13.25;;;;;;;17.04;35.08;100305.13;5095591;28;20420;-75
2021/04/25 09:11:49;;;;;;;27.67;13.15;;;;;;;17.02;34.90;100290.94;5077859;28;20043;-75
2021/04/25 09:14:25;;;;;;;20.85;10.45;;;;;;;16.84;35.38;100309.53;5095556;28;20036;-75
2021/04/25 09:16:54;;;;;;;22.75;13.02;;;;;;;17.07;36.02;100304.84;5077345;28;20056;-75
2021/04/25 09:19:23;;;;;;;24.60;13.18;;;;;;;17.40;35.28;100290.31;5077506;28;20106;-75
2021/04/25 09:21:58;;;;;;;25.00;13.57;;;;;;;17.42;34.23;100277.53;5095842;28;20051;-75
2021/04/25 09:24:32;;;;;;;26.38;12.80;;;;;;;17.56;34.52;100295.16;5095203;28;20107;-75
2021/04/25 09:26:58;;;;;;;20.75;11.55;;;;;;;17.22;34.63;100296.44;5095405;28;20527;-75
2021/04/25 09:29:26;;;;;;;24.10;12.95;;;;;;;17.13;35.96;100300.78;5076858;28;20024;-75
2021/04/25 09:31:54;;;;;;;23.75;12.70;;;;;;;16.95;35.60;100292.44;5095538;28;20119;-75
2021/04/25 09:34:27;;;;;;;25.30;12.23;;;;;;;16.90;36.01;100275.84;5077389;28;20115;-75
2021/04/25 09:36:55;;;;;;;23.35;13.05;;;;;;;16.98;35.74;100288.63;5077259;28;20032;-75
2021/04/25 09:39:21;;;;;;;25.83;12.75;;;;;;;16.96;36.53;100269.06;5077357;28;20043;-76
2021/04/25 09:41:47;;;;;;;23.60;12.70;;;;;;;17.08;36.52;100289.53;5095289;28;20044;-75
2021/04/25 09:44:33;;;;;;;23.98;11.95;;;;;;;16.92;36.18;100290.03;5095084;28;20067;-76
2021/04/25 09:47:03;;;;;;;19.95;9.00;;;;;;;16.29;36.84;100267.53;5095214;28;20115;-76
2021/04/25 09:49:49;;;;;;;26.35;13.50;;;;;;;16.51;37.72;100294.38;5095030;28;20024;-74
2021/04/25 09:52:37;;;;;;;26.25;12.93;;;;;;;16.55;37.66;100295.81;5094873;28;20024;-74
2021/04/25 09:55:26;;;;;;;24.27;12.98;;;;;;;16.72;37.44;100269.34;5095158;28;20028;-74
2021/04/25 09:57:57;;;;;;;23.40;11.95;;;;;;;17.04;37.10;100280.88;5094969;28;20115;-75
2021/04/25 10:00:36;;;;;;;25.17;11.60;;;;;;;17.15;36.00;100277.25;5076573;28;20081;-75
2021/04/25 10:03:07;;;;;;;23.95;11.75;;;;;;;17.33;35.70;100266.69;5095231;28;20032;-75
2021/04/25 10:05:33;;;;;;;21.67;11.07;;;;;;;17.46;35.78;100267.31;5094859;28;20081;-75
2021/04/25 10:08:00;;;;;;;22.67;11.32;;;;;;;17.51;35.16;100270.47;5094270;28;20035;-75
2021/04/25 10:10:26;;;;;;;23.80;11.52;;;;;;;17.53;35.20;100257.69;5094230;28;20032;-75
2021/04/25 10:12:52;;;;;;;23.98;12.18;;;;;;;17.40;35.83;100228.28;5094753;28;20067;-74
2021/04/25 10:15:19;;;;;;;24.00;11.85;;;;;;;17.54;35.90;100224.34;5094242;28;20200;-74
2021/04/25 10:17:47;;;;;;;22.48;11.85;;;;;;;17.74;36.24;100238.75;5076476;28;20048;-74
2021/04/25 10:20:15;;;;;;;19.45;10.57;;;;;;;17.92;35.33;100239.81;5094266;28;20036;-78
2021/04/25 10:22:46;;;;;;;20.25;10.10;;;;;;;17.61;35.04;100221.97;5094401;28;20043;-76
2021/04/25 10:25:18;;;;;;;23.60;10.95;;;;;;;17.89;34.91;100214.94;5094633;28;20020;-74
2021/04/25 10:27:55;;;;;;;23.40;10.70;;;;;;;17.99;34.62;100216.66;5094408;28;20139;-73
2021/04/25 10:30:20;;;;;;;20.23;10.05;;;;;;;18.01;34.98;100219.22;5094538;28;20113;-76
2021/04/25 10:32:54;;;;;;;19.63;9.93;;;;;;;17.99;34.49;100210.41;5094404;28;20075;-74
2021/04/25 10:35:23;;;;;;;13.70;7.15;;;;;;;17.85;34.34;100227.00;5093999;28;20425;-74
2021/04/25 10:37:50;;;;;;;15.10;8.15;;;;;;;17.97;33.78;100218.66;5094436;28;20035;-74
2021/04/25 10:40:36;;;;;;;16.23;8.30;;;;;;;18.41;33.57;100215.53;5093721;28;20532;-75
2021/04/25 10:43:09;;;;;;;17.17;9.20;;;;;;;18.22;34.02;100190.22;5094239;28;20026;-75
2021/04/25 10:45:58;;;;;;;16.05;8.48;;;;;;;18.27;34.57;100203.31;5093987;28;20036;-73
2021/04/25 10:48:25;;;;;;;16.90;8.60;;;;;;;18.45;34.88;100200.75;5093865;28;20063;-74
2021/04/25 10:50:57;;;;;;;17.65;9.43;;;;;;;18.48;34.47;100195.91;5094074;28;20036;-74
2021/04/25 10:53:25;;;;;;;16.52;9.30;;;;;;;18.56;34.18;100203.28;5075629;28;20024;-74
2021/04/25 10:56:13;;;;;;;20.73;9.50;;;;;;;18.42;33.86;100195.63;5094013;28;20067;-74
2021/04/25 10:58:41;;;;;;;18.50;9.85;;;;;;;18.58;34.46;100182.38;5093714;28;20024;-74
2021/04/25 11:01:07;;;;;;;18.42;8.80;;;;;;;18.47;34.15;100179.84;5093980;28;20051;-75
2021/04/25 11:03:32;;;;;;;18.85;10.40;;;;;;;18.59;34.27;100186.78;5093585;28;20028;-74
2021/04/25 11:05:58;;;;;;;14.52;7.50;;;;;;;18.25;31.68;100170.22;5075837;28;20032;-75
2021/04/25 11:08:29;;;;;;;14.07;7.85;;;;;;;18.34;32.15;100180.16;5075093;28;20119;-75
2021/04/25 11:11:10;;;;;;;12.60;7.85;;;;;;;18.27;32.67;100165.53;5093600;28;20028;-76
2021/04/25 11:13:44;;;;;;;12.88;8.10;;;;;;;18.01;32.15;100159.84;5075287;28;20028;-74